createdAt,value
2023-01-25T00:00:03.899Z,69.55
2023-01-25T00:02:30.399Z,69.48
2023-01-25T00:04:56.962Z,69.93
2023-01-25T00:07:23.437Z,68.78
2023-01-25T00:09:49.879Z,67.85
2023-01-25T00:12:16.407Z,67.81
2023-01-25T00:14:42.889Z,66.46
2023-01-25T00:17:09.453Z,67.35
2023-01-25T00:19:35.917Z,68.29
2023-01-25T00:22:02.615Z,69.01
2023-01-25T00:24:29.075Z,68.47
2023-01-25T00:26:55.560Z,69.08
2023-01-25T00:29:22.003Z,69.63
2023-01-25T00:31:57.820Z,69.41
2023-01-25T00:34:24.379Z,69.28
2023-01-25T00:36:57.354Z,70.01
2023-01-25T00:39:25.421Z,71.27
2023-01-25T00:41:51.963Z,71.73
2023-01-25T00:44:18.455Z,71.35
2023-01-25T00:46:44.953Z,71.54
2023-01-25T00:49:23.222Z,72.76
2023-01-25T00:51:50.697Z,71.24
2023-01-25T00:54:17.745Z,71.34
2023-01-25T00:56:44.333Z,69.94
2023-01-25T00:59:11.581Z,68.90
2023-01-25T01:01:38.384Z,68.47
2023-01-25T01:04:06.528Z,69.26
2023-01-25T01:06:38.618Z,69.40
2023-01-25T01:09:06.368Z,69.47
2023-01-25T01:11:32.953Z,70.28
2023-01-25T01:13:59.836Z,69.91
2023-01-25T01:16:27.168Z,69.64
2023-01-25T01:18:53.945Z,70.41
2023-01-25T01:21:20.831Z,72.04
2023-01-25T01:23:48.239Z,72.09
2023-01-25T01:26:16.549Z,71.67
2023-01-25T01:28:43.087Z,69.73
2023-01-25T01:31:13.498Z,70.66
2023-01-25T01:33:40.419Z,69.90
2023-01-25T01:36:15.293Z,70.32
2023-01-25T01:38:42.640Z,70.07
2023-01-25T01:41:09.991Z,70.34
2023-01-25T01:43:36.907Z,70.96
2023-01-25T01:46:14.316Z,70.84
2023-01-25T01:48:56.153Z,71.46
2023-01-25T01:51:44.429Z,71.04
2023-01-25T01:54:29.387Z,70.41
2023-01-25T01:57:00.917Z,72.06
2023-01-25T02:00:06.730Z,71.62
2023-01-25T02:02:33.327Z,72.01
2023-01-25T02:05:01.402Z,71.51
2023-01-25T02:07:34.821Z,71.79
2023-01-25T02:10:06.566Z,72.47
2023-01-25T02:12:33.103Z,70.00
2023-01-25T02:14:59.585Z,71.18
2023-01-25T02:17:31.521Z,70.48
2023-01-25T02:20:00.856Z,72.96
2023-01-25T02:22:33.320Z,73.03
2023-01-25T02:25:20.125Z,73.94
2023-01-25T02:28:06.667Z,72.86
2023-01-25T02:30:34.032Z,71.66
2023-01-25T02:33:00.939Z,72.29
2023-01-25T02:35:43.770Z,74.51
2023-01-25T02:38:12.655Z,73.71
2023-01-25T02:41:00.805Z,72.83
2023-01-25T02:43:32.174Z,72.67
2023-01-25T02:46:04.441Z,72.64
2023-01-25T02:48:30.901Z,73.34
2023-01-25T02:50:57.388Z,74.36
2023-01-25T02:53:23.870Z,74.61
2023-01-25T02:55:50.318Z,74.17
2023-01-25T02:58:16.754Z,72.21
2023-01-25T03:00:43.246Z,72.70
2023-01-25T03:03:09.704Z,74.36
2023-01-25T03:05:36.219Z,73.07
2023-01-25T03:08:02.659Z,71.87
2023-01-25T03:10:29.136Z,73.63
2023-01-25T03:12:55.582Z,73.05
2023-01-25T03:15:22.161Z,73.64
2023-01-25T03:17:48.598Z,73.32
2023-01-25T03:20:15.160Z,73.91
2023-01-25T03:22:41.600Z,72.55
2023-01-25T03:25:08.825Z,71.91
2023-01-25T03:27:35.490Z,71.79
2023-01-25T03:30:02.039Z,72.61
2023-01-25T03:32:28.517Z,72.01
2023-01-25T03:34:55.075Z,72.93
2023-01-25T03:37:21.647Z,72.56
2023-01-25T03:39:48.100Z,73.05
2023-01-25T03:42:15.324Z,72.27
2023-01-25T03:44:41.791Z,73.01
2023-01-25T03:47:08.334Z,72.74
2023-01-25T03:49:34.829Z,74.58
2023-01-25T03:52:01.346Z,74.76
2023-01-25T03:54:27.795Z,74.68
2023-01-25T03:56:54.299Z,74.73
2023-01-25T03:59:20.761Z,74.58
2023-01-25T04:01:47.241Z,74.17
2023-01-25T04:04:13.741Z,75.57
2023-01-25T04:06:40.427Z,75.00
2023-01-25T04:09:07.016Z,74.33
2023-01-25T04:11:33.734Z,75.93
2023-01-25T04:14:00.326Z,73.03
2023-01-25T04:16:28.070Z,73.05
2023-01-25T04:18:54.545Z,74.35
2023-01-25T04:21:21.014Z,74.58
2023-01-25T04:23:47.534Z,73.62
2023-01-25T04:26:14.579Z,75.04
2023-01-25T04:28:41.098Z,74.16
2023-01-25T04:31:07.950Z,74.11
2023-01-25T04:33:34.550Z,74.57
2023-01-25T04:36:01.162Z,74.50
2023-01-25T04:38:27.638Z,74.55
2023-01-25T04:40:54.199Z,74.62
2023-01-25T04:43:21.578Z,75.77
2023-01-25T04:45:48.249Z,76.59
2023-01-25T04:48:15.229Z,76.95
2023-01-25T04:50:42.730Z,75.72
2023-01-25T04:53:10.565Z,75.10
2023-01-25T04:55:37.078Z,75.06
2023-01-25T04:58:04.321Z,75.56
2023-01-25T05:00:32.409Z,75.56
2023-01-25T05:02:59.008Z,76.32
2023-01-25T05:05:25.543Z,76.15
2023-01-25T05:07:52.004Z,76.21
2023-01-25T05:10:18.667Z,78.15
2023-01-25T05:12:45.175Z,76.79
2023-01-25T05:15:12.034Z,76.29
2023-01-25T05:17:38.704Z,75.56
2023-01-25T05:20:05.454Z,76.87
2023-01-25T05:22:32.122Z,77.99
2023-01-25T05:24:59.289Z,78.01
2023-01-25T05:27:25.928Z,78.25
2023-01-25T05:29:52.370Z,76.12
2023-01-25T05:32:20.603Z,77.57
2023-01-25T05:34:47.677Z,76.37
2023-01-25T05:37:17.269Z,76.88
2023-01-25T05:39:43.734Z,77.47
2023-01-25T05:42:17.899Z,77.41
2023-01-25T05:44:47.065Z,76.22
2023-01-25T05:47:15.792Z,78.14
2023-01-25T05:49:42.306Z,77.13
2023-01-25T05:52:13.838Z,75.68
2023-01-25T05:54:40.286Z,75.45
2023-01-25T05:57:06.754Z,75.97
2023-01-25T05:59:33.202Z,75.16
2023-01-25T06:01:59.669Z,75.53
2023-01-25T06:04:26.182Z,76.90
2023-01-25T06:06:52.677Z,75.64
2023-01-25T06:09:19.134Z,74.36
2023-01-25T06:11:46.031Z,74.82
2023-01-25T06:14:12.760Z,75.39
2023-01-25T06:16:39.360Z,77.57
2023-01-25T06:19:07.096Z,77.94
2023-01-25T06:21:36.916Z,79.08
2023-01-25T06:24:04.716Z,77.87
2023-01-25T06:26:31.272Z,78.67
2023-01-25T06:28:57.775Z,76.00
2023-01-25T06:31:24.346Z,76.46
2023-01-25T06:33:52.176Z,77.17
2023-01-25T06:36:20.419Z,76.77
2023-01-25T06:38:50.975Z,77.33
2023-01-25T06:41:18.428Z,76.45
2023-01-25T06:43:45.248Z,75.06
2023-01-25T06:46:12.769Z,76.85
2023-01-25T06:48:40.143Z,75.68
2023-01-25T06:51:08.385Z,76.12
2023-01-25T06:53:37.395Z,78.54
2023-01-25T06:56:11.983Z,76.84
2023-01-25T06:58:39.104Z,75.88
2023-01-25T07:01:14.209Z,76.49
2023-01-25T07:03:41.363Z,77.20
2023-01-25T07:06:10.708Z,78.32
2023-01-25T07:08:37.692Z,79.44
2023-01-25T07:11:05.796Z,78.24
2023-01-25T07:13:33.531Z,78.38
2023-01-25T07:16:02.594Z,77.51
2023-01-25T07:18:30.211Z,75.97
2023-01-25T07:21:22.154Z,75.32
2023-01-25T07:23:49.620Z,77.31
2023-01-25T07:26:26.090Z,75.76
2023-01-25T07:28:53.627Z,76.10
2023-01-25T07:31:20.918Z,77.64
2023-01-25T07:33:49.444Z,77.69
2023-01-25T07:36:16.079Z,76.52
2023-01-25T07:38:42.840Z,78.52
2023-01-25T07:41:09.351Z,78.11
2023-01-25T07:43:35.807Z,78.32
2023-01-25T07:46:06.600Z,77.76
2023-01-25T07:48:33.530Z,77.22
2023-01-25T07:51:22.451Z,77.20
2023-01-25T07:53:52.147Z,78.71
2023-01-25T07:56:19.491Z,77.56
2023-01-25T07:58:46.659Z,77.58
2023-01-25T08:01:17.562Z,77.91
2023-01-25T08:03:44.655Z,78.37
2023-01-25T08:06:11.455Z,77.33
2023-01-25T08:08:41.061Z,78.03
2023-01-25T08:11:16.556Z,77.41
2023-01-25T08:13:46.399Z,77.18
2023-01-25T08:16:13.844Z,77.04
2023-01-25T08:18:40.584Z,76.15
2023-01-25T08:21:07.295Z,76.65
2023-01-25T08:23:33.801Z,77.70
2023-01-25T08:26:08.503Z,78.77
2023-01-25T08:28:35.834Z,77.68
2023-01-25T08:31:14.226Z,78.94
2023-01-25T08:33:41.164Z,78.45
2023-01-25T08:36:09.508Z,76.98
2023-01-25T08:38:36.363Z,76.30
2023-01-25T08:41:10.924Z,77.49
2023-01-25T08:43:38.201Z,76.99
2023-01-25T08:46:05.161Z,78.53
2023-01-25T08:48:32.083Z,77.08
2023-01-25T08:50:59.268Z,76.46
2023-01-25T08:53:28.613Z,80.46
2023-01-25T08:55:55.095Z,77.34
2023-01-25T08:58:22.639Z,77.86
2023-01-25T09:00:49.558Z,78.65
2023-01-25T09:03:18.185Z,77.69
2023-01-25T09:05:45.029Z,77.25
2023-01-25T09:08:11.562Z,77.81
2023-01-25T09:10:38.086Z,77.75
2023-01-25T09:13:06.348Z,76.49
2023-01-25T09:15:34.131Z,76.55
2023-01-25T09:18:00.565Z,76.26
2023-01-25T09:20:27.217Z,76.59
2023-01-25T09:22:55.326Z,77.03
2023-01-25T09:25:21.829Z,78.30
2023-01-25T09:27:51.818Z,76.93
2023-01-25T09:30:20.112Z,78.86
2023-01-25T09:32:49.626Z,80.69
2023-01-25T09:35:16.509Z,77.82
2023-01-25T09:37:42.964Z,75.87
2023-01-25T09:40:19.616Z,75.81
2023-01-25T09:43:06.228Z,77.01
2023-01-25T09:45:34.721Z,77.25
2023-01-25T09:48:26.201Z,76.19
2023-01-25T09:51:21.099Z,75.96
2023-01-25T09:53:50.082Z,75.43
2023-01-25T09:56:27.915Z,77.50
2023-01-25T09:58:58.888Z,76.19
2023-01-25T10:01:38.254Z,75.64
2023-01-25T10:04:31.396Z,74.97
2023-01-25T10:07:04.703Z,74.46
2023-01-25T10:09:34.312Z,76.80
2023-01-25T10:12:09.525Z,75.65
2023-01-25T10:14:36.033Z,76.70
2023-01-25T10:17:34.878Z,74.92
2023-01-25T10:20:24.222Z,74.49
2023-01-25T10:23:29.495Z,75.35
2023-01-25T10:26:01.072Z,75.44
2023-01-25T10:28:39.299Z,75.95
2023-01-25T10:31:29.737Z,76.37
2023-01-25T10:33:56.313Z,76.62
2023-01-25T10:36:28.955Z,74.65
2023-01-25T10:38:59.436Z,76.11
2023-01-25T10:41:36.981Z,75.85
2023-01-25T10:44:21.780Z,75.27
2023-01-25T10:47:15.443Z,74.53
2023-01-25T10:49:56.087Z,75.60
2023-01-25T10:52:25.056Z,75.37
2023-01-25T10:55:17.013Z,75.72
2023-01-25T10:57:51.336Z,74.81
2023-01-25T11:00:29.983Z,74.94
2023-01-25T11:02:57.191Z,75.42
2023-01-25T11:05:35.142Z,75.29
2023-01-25T11:08:30.743Z,75.65
2023-01-25T11:10:57.705Z,75.49
2023-01-25T11:13:33.253Z,75.08
2023-01-25T11:15:59.722Z,76.60
2023-01-25T11:18:29.515Z,75.47
2023-01-25T11:21:18.367Z,74.16
2023-01-25T11:24:00.431Z,74.13
2023-01-25T11:26:27.586Z,72.80
2023-01-25T11:29:10.824Z,72.67
2023-01-25T11:31:37.421Z,73.63
2023-01-25T11:34:09.686Z,74.20
2023-01-25T11:36:45.656Z,74.73
2023-01-25T11:39:44.032Z,77.96
2023-01-25T11:42:34.488Z,76.35
2023-01-25T11:45:10.281Z,75.65
2023-01-25T11:47:54.981Z,75.28
2023-01-25T11:50:28.458Z,74.60
2023-01-25T11:53:20.817Z,74.25
2023-01-25T11:55:55.922Z,74.40
2023-01-25T11:58:25.471Z,74.90
2023-01-25T12:00:59.707Z,74.66
2023-01-25T12:03:51.140Z,74.27
2023-01-25T12:06:26.767Z,75.18
2023-01-25T12:09:27.204Z,73.27
2023-01-25T12:12:16.958Z,72.46
2023-01-25T12:15:01.655Z,72.24
2023-01-25T12:17:57.683Z,74.52
2023-01-25T12:21:08.208Z,73.21
2023-01-25T12:23:43.438Z,75.53
2023-01-25T12:26:21.016Z,74.48
2023-01-25T12:29:10.493Z,75.21
2023-01-25T12:31:58.939Z,73.53
2023-01-25T12:34:36.693Z,72.63
2023-01-25T12:37:28.751Z,73.18
2023-01-25T12:40:06.626Z,75.02
2023-01-25T12:42:38.112Z,71.79
2023-01-25T12:45:14.545Z,72.79
2023-01-25T12:47:46.867Z,72.47
2023-01-25T12:50:23.877Z,72.38
2023-01-25T12:52:54.909Z,73.26
2023-01-25T12:55:21.452Z,74.58
2023-01-25T12:58:32.842Z,74.71
2023-01-25T13:01:41.156Z,73.28
2023-01-25T13:04:25.999Z,73.37
2023-01-25T13:06:55.075Z,74.10
2023-01-25T13:10:06.010Z,75.25
2023-01-25T13:12:54.078Z,77.41
2023-01-25T13:15:43.186Z,76.76
2023-01-25T13:18:24.959Z,74.65
2023-01-25T13:20:53.685Z,73.28
2023-01-25T13:23:45.842Z,73.55
2023-01-25T13:26:21.429Z,74.22
2023-01-25T13:28:49.334Z,74.10
2023-01-25T13:31:51.075Z,73.70
2023-01-25T13:34:40.188Z,73.79
2023-01-25T13:37:42.522Z,74.01
2023-01-25T13:40:31.471Z,74.40
2023-01-25T13:43:25.931Z,73.92
2023-01-25T13:45:52.980Z,72.47
2023-01-25T13:48:24.489Z,73.76
2023-01-25T13:50:53.658Z,75.40
2023-01-25T13:53:22.920Z,73.59
2023-01-25T13:55:55.180Z,72.87
2023-01-25T13:58:38.778Z,73.81
2023-01-25T14:01:17.824Z,74.01
2023-01-25T14:03:50.239Z,73.12
2023-01-25T14:06:29.194Z,73.01
2023-01-25T14:08:58.467Z,73.87
2023-01-25T14:11:27.203Z,73.59
2023-01-25T14:13:57.494Z,73.12
2023-01-25T14:16:24.110Z,73.65
2023-01-25T14:18:50.700Z,74.14
2023-01-25T14:21:19.301Z,74.95
2023-01-25T14:23:46.637Z,74.29
2023-01-25T14:26:19.155Z,73.39
2023-01-25T14:28:59.521Z,73.61
2023-01-25T14:31:33.008Z,73.13
2023-01-25T14:33:59.669Z,73.75
2023-01-25T14:36:29.807Z,74.18
2023-01-25T14:38:56.387Z,73.23
2023-01-25T14:41:30.083Z,72.30
2023-01-25T14:44:10.669Z,73.26
2023-01-25T14:46:38.475Z,72.69
2023-01-25T14:49:14.304Z,74.10
2023-01-25T14:51:49.391Z,74.41
2023-01-25T14:54:19.163Z,73.40
2023-01-25T14:56:50.959Z,73.15
2023-01-25T14:59:32.437Z,74.14
2023-01-25T15:02:20.187Z,75.04
2023-01-25T15:04:55.979Z,75.78
2023-01-25T15:07:42.276Z,73.69
2023-01-25T15:10:29.530Z,72.86
2023-01-25T15:13:21.629Z,72.64
2023-01-25T15:15:56.545Z,74.17
2023-01-25T15:18:45.328Z,74.84
2023-01-25T15:21:19.735Z,73.84
2023-01-25T15:23:47.861Z,72.99
2023-01-25T15:26:21.401Z,74.91
2023-01-25T15:28:49.342Z,74.17
2023-01-25T15:31:22.557Z,74.82
2023-01-25T15:33:49.179Z,76.12
2023-01-25T15:36:17.016Z,74.86
2023-01-25T15:38:43.513Z,75.51
2023-01-25T15:41:12.334Z,75.54
2023-01-25T15:43:38.851Z,75.90
2023-01-25T15:46:06.868Z,74.81
2023-01-25T15:48:36.946Z,74.20
2023-01-25T15:51:04.018Z,76.08
2023-01-25T15:53:30.478Z,76.14
2023-01-25T15:56:02.133Z,75.21
2023-01-25T15:58:36.741Z,76.02
2023-01-25T16:01:03.560Z,74.32
2023-01-25T16:03:30.828Z,74.91
2023-01-25T16:06:00.066Z,73.54
2023-01-25T16:08:26.650Z,72.95
2023-01-25T16:10:53.165Z,72.77
2023-01-25T16:13:19.695Z,74.30
2023-01-25T16:15:49.002Z,73.35
2023-01-25T16:18:15.490Z,75.06
2023-01-25T16:20:43.274Z,75.45
2023-01-25T16:23:13.099Z,74.14
2023-01-25T16:25:40.548Z,74.99
2023-01-25T16:28:13.787Z,74.98
2023-01-25T16:30:41.151Z,74.15
2023-01-25T16:33:07.647Z,75.14
2023-01-25T16:35:34.098Z,75.63
2023-01-25T16:38:00.557Z,76.65
2023-01-25T16:40:30.180Z,76.17
2023-01-25T16:42:57.071Z,75.42
2023-01-25T16:45:26.435Z,73.96
2023-01-25T16:47:53.500Z,75.94
2023-01-25T16:50:21.847Z,73.91
2023-01-25T16:52:51.735Z,72.91
2023-01-25T16:55:19.301Z,73.82
2023-01-25T16:57:49.836Z,74.12
2023-01-25T17:00:16.674Z,74.42
2023-01-25T17:02:53.434Z,75.68
2023-01-25T17:05:25.566Z,74.19
2023-01-25T17:07:52.073Z,73.12
2023-01-25T17:10:18.614Z,73.02
2023-01-25T17:12:45.899Z,74.91
2023-01-25T17:15:12.360Z,75.20
2023-01-25T17:17:38.843Z,77.52
2023-01-25T17:20:05.993Z,76.39
2023-01-25T17:22:37.391Z,77.98
2023-01-25T17:25:05.395Z,78.58
2023-01-25T17:27:32.311Z,76.82
2023-01-25T17:29:58.923Z,75.88
2023-01-25T17:32:25.443Z,75.51
2023-01-25T17:34:52.013Z,75.91
2023-01-25T17:37:18.462Z,75.12
2023-01-25T17:39:45.073Z,74.67
2023-01-25T17:42:13.198Z,73.23
2023-01-25T17:44:39.937Z,75.06
2023-01-25T17:47:06.604Z,73.72
2023-01-25T17:49:33.146Z,74.04
2023-01-25T17:51:59.655Z,73.13
2023-01-25T17:54:26.189Z,74.62
2023-01-25T17:56:54.096Z,76.02
2023-01-25T17:59:21.643Z,75.08
2023-01-25T18:01:48.293Z,73.43
2023-01-25T18:04:17.614Z,73.26
2023-01-25T18:06:44.359Z,73.68
2023-01-25T18:09:10.863Z,74.32
2023-01-25T18:11:39.928Z,74.51
2023-01-25T18:14:09.531Z,75.54
2023-01-25T18:16:37.946Z,75.94
2023-01-25T18:19:04.987Z,73.64
2023-01-25T18:21:33.111Z,74.05
2023-01-25T18:24:02.288Z,77.17
2023-01-25T18:26:31.821Z,77.44
2023-01-25T18:29:00.127Z,74.83
2023-01-25T18:31:26.909Z,72.21
2023-01-25T18:33:53.489Z,71.76
2023-01-25T18:36:20.499Z,72.75
2023-01-25T18:38:47.253Z,72.03
2023-01-25T18:41:17.865Z,73.93
2023-01-25T18:43:44.395Z,71.60
2023-01-25T18:46:11.541Z,72.75
2023-01-25T18:48:38.170Z,72.92
2023-01-25T18:51:13.025Z,73.00
2023-01-25T18:53:41.510Z,72.49
2023-01-25T18:56:11.392Z,71.92
2023-01-25T18:58:38.775Z,72.01
2023-01-25T19:01:16.414Z,73.55
2023-01-25T19:03:43.772Z,74.23
2023-01-25T19:06:12.456Z,75.03
2023-01-25T19:08:44.055Z,74.85
2023-01-25T19:11:21.057Z,74.76
2023-01-25T19:13:48.455Z,74.77
2023-01-25T19:16:20.378Z,74.15
2023-01-25T19:18:52.921Z,74.75
2023-01-25T19:21:28.644Z,74.98
2023-01-25T19:23:56.091Z,75.88
2023-01-25T19:26:39.152Z,76.30
2023-01-25T19:29:07.522Z,75.79
2023-01-25T19:31:48.711Z,74.61
2023-01-25T19:34:15.297Z,74.79
2023-01-25T19:36:49.401Z,74.01
2023-01-25T19:39:18.199Z,75.38
2023-01-25T19:41:45.147Z,75.14
2023-01-25T19:44:13.886Z,76.33
2023-01-25T19:46:42.933Z,75.14
2023-01-25T19:49:12.163Z,75.64
2023-01-25T19:51:44.595Z,74.81
2023-01-25T19:54:18.037Z,76.38
2023-01-25T19:56:49.586Z,76.93
2023-01-25T19:59:21.747Z,75.30
2023-01-25T20:01:49.231Z,74.64
2023-01-25T20:04:19.717Z,75.22
2023-01-25T20:06:47.426Z,75.05
2023-01-25T20:09:16.113Z,75.40
2023-01-25T20:11:43.871Z,76.32
2023-01-25T20:14:12.417Z,74.22
2023-01-25T20:16:39.352Z,75.26
2023-01-25T20:19:06.315Z,74.36
2023-01-25T20:21:33.597Z,74.38
2023-01-25T20:24:04.803Z,75.71
2023-01-25T20:26:34.701Z,75.44
2023-01-25T20:29:01.331Z,74.15
2023-01-25T20:31:38.164Z,72.67
2023-01-25T20:34:11.820Z,75.04
2023-01-25T20:36:38.976Z,74.58
2023-01-25T20:39:06.512Z,75.62
2023-01-25T20:41:33.177Z,73.37
2023-01-25T20:44:01.999Z,74.37
2023-01-25T20:46:29.807Z,75.54
2023-01-25T20:48:56.357Z,76.31
2023-01-25T20:51:24.022Z,76.67
2023-01-25T20:53:50.869Z,76.49
2023-01-25T20:56:18.648Z,75.45
2023-01-25T20:58:50.352Z,77.54
2023-01-25T21:01:28.294Z,76.61
2023-01-25T21:03:56.731Z,75.47
2023-01-25T21:06:27.470Z,75.10
2023-01-25T21:08:54.461Z,74.21
2023-01-25T21:11:23.070Z,75.62
2023-01-25T21:13:49.573Z,76.32
2023-01-25T21:16:23.174Z,75.14
2023-01-25T21:18:52.157Z,75.83
2023-01-25T21:21:32.344Z,74.99
2023-01-25T21:24:00.112Z,76.11
2023-01-25T21:26:29.277Z,76.45
2023-01-25T21:28:55.982Z,75.25
2023-01-25T21:31:24.826Z,74.87
2023-01-25T21:33:52.095Z,74.76
2023-01-25T21:36:19.213Z,75.11
2023-01-25T21:38:48.097Z,75.77
2023-01-25T21:41:21.213Z,76.40
2023-01-25T21:44:07.533Z,76.28
2023-01-25T21:46:34.929Z,77.37
2023-01-25T21:49:25.035Z,76.70
2023-01-25T21:51:53.836Z,75.95
2023-01-25T21:54:20.262Z,75.37
2023-01-25T21:56:48.440Z,76.40
2023-01-25T21:59:15.137Z,77.76
2023-01-25T22:01:45.084Z,75.81
2023-01-25T22:04:12.814Z,76.37
2023-01-25T22:06:39.960Z,77.86
2023-01-25T22:09:07.365Z,78.84
2023-01-25T22:11:34.138Z,79.24
2023-01-25T22:14:01.285Z,78.88
2023-01-25T22:16:31.465Z,77.98
2023-01-25T22:19:02.351Z,78.07
2023-01-25T22:21:54.654Z,78.93
2023-01-25T22:24:30.276Z,78.99
2023-01-25T22:27:15.962Z,77.65
2023-01-25T22:29:42.401Z,76.79
2023-01-25T22:32:08.919Z,79.51
2023-01-25T22:34:35.789Z,78.06
2023-01-25T22:37:02.238Z,78.94
2023-01-25T22:39:28.717Z,78.95
2023-01-25T22:41:56.510Z,77.71
2023-01-25T22:44:22.940Z,78.51
2023-01-25T22:46:50.655Z,79.04
2023-01-25T22:49:17.184Z,79.43
2023-01-25T22:51:43.668Z,78.90
2023-01-25T22:54:10.112Z,79.88
2023-01-25T22:56:36.739Z,79.57
2023-01-25T22:59:03.573Z,79.28
2023-01-25T23:01:34.512Z,79.89
2023-01-25T23:04:01.944Z,80.97
2023-01-25T23:06:30.406Z,80.92
2023-01-25T23:08:59.759Z,80.94
2023-01-25T23:11:32.252Z,79.30
2023-01-25T23:14:18.352Z,80.25
2023-01-25T23:16:44.923Z,78.40
2023-01-25T23:19:11.589Z,79.40
2023-01-25T23:21:38.198Z,80.05
2023-01-25T23:24:05.164Z,79.53
2023-01-25T23:26:40.948Z,77.66
2023-01-25T23:29:10.537Z,77.98
2023-01-25T23:31:37.264Z,78.15
2023-01-25T23:34:06.003Z,78.25
2023-01-25T23:36:34.724Z,78.60
2023-01-25T23:39:01.338Z,77.91
2023-01-25T23:41:29.079Z,78.81
2023-01-25T23:43:56.392Z,78.11
2023-01-25T23:46:23.517Z,78.31
2023-01-25T23:48:50.128Z,79.01
2023-01-25T23:51:17.519Z,80.66
2023-01-25T23:53:44.214Z,80.50
2023-01-25T23:56:13.966Z,80.57
2023-01-25T23:58:40.485Z,79.04
